Hector International Airport
KFAR : now visible

Airfield :











YOU CAN JOIN US ON...

 
LOGIN :

Register | Disclaimer

   EN    FR    IT 

 









Legend :    VFR   Marginal VFR   IFR   Intensive IFR   Very Intensive IFR
Visi :
Ceiling :
>= 8 km
>= 3000ft
5 to 8 km
1000 to 3000 ft
1500m to 5 km
500 to 1000 ft
800 to 1500m
200 to 500 ft
< 800m
< 200 ft
Symbols :   Thunderstorms  Fog  Heavy snow  Heavy precipitations  Wind > 20 kt






- Airport Elevation : 902 ft
- IATA code : FAR


KFAR - Hector International

CURRENT METAR :
  • 141553Z 18013KT 10SM OVC060 M07/M10 A3012 RMK AO2 SLP217 T10721100

EXPIRED METARs :
  • 141353Z 18008KT 10SM OVC060 M11/M13 A3016 RMK AO2 SLP231 T11111128

TAF KFAR
Valid from the 14 at 16:00 until the 15 at 12:00 UTC


141530Z 1416/1512 19010KT P6SM OVC060
FM141730 20012KT P6SM SCT200
FM142300 27008KT P6SM BKN019
FM150300 31005KT P6SM OVC019
FM150600 34005KT P6SM BKN021
FM151000 03005KT P6SM BKN040



MET'MAP, your aeronautical weather chart ! - Copyright ORBIFLY December 2007 - Disclaimer

ORBIFLY MET'MAP TEAM :

Programming & Development : Alexandra Zaïnal
Concept & Development : Baudouin d'Aumeries
Co-Development & Prog : Marc-Olivier Méhu
Technical & hardware support : Manuel Goepfert

Contact : metmap@orbifly.com




SOURCES & CREDITS :

   NOAA       Earth
Advisory